createdAt,value
2018-02-12T00:02:07.237Z,13.97
2018-02-12T00:04:34.762Z,15.33
2018-02-12T00:07:02.277Z,13.77
2018-02-12T00:09:29.793Z,15.67
2018-02-12T00:11:57.304Z,18.80
2018-02-12T00:14:24.819Z,14.93
2018-02-12T00:16:52.323Z,15.07
2018-02-12T00:19:19.846Z,15.80
2018-02-12T00:21:47.364Z,16.93
2018-02-12T00:24:14.876Z,17.10
2018-02-12T00:26:42.387Z,17.93
2018-02-12T00:29:09.917Z,16.43
2018-02-12T00:31:37.442Z,16.10
2018-02-12T00:34:04.971Z,17.13
2018-02-12T00:36:32.532Z,17.40
2018-02-12T00:39:00.049Z,17.03
2018-02-12T00:41:27.578Z,16.40
2018-02-12T00:43:55.109Z,15.13
2018-02-12T00:46:22.633Z,18.43
2018-02-12T00:48:50.156Z,15.47
2018-02-12T00:51:17.688Z,16.00
2018-02-12T00:53:45.201Z,17.07
2018-02-12T00:56:12.734Z,19.37
2018-02-12T00:58:40.260Z,17.90
2018-02-12T01:01:07.780Z,16.57
2018-02-12T01:03:35.299Z,19.10
2018-02-12T01:06:02.812Z,18.53
2018-02-12T01:08:31.134Z,14.97
2018-02-12T01:10:58.652Z,14.97
2018-02-12T01:13:26.169Z,16.10
2018-02-12T01:15:53.703Z,17.83
2018-02-12T01:18:21.215Z,19.40
2018-02-12T01:20:48.736Z,17.13
2018-02-12T01:23:16.257Z,16.90
2018-02-12T01:25:43.786Z,18.33
2018-02-12T01:28:11.301Z,17.50
2018-02-12T01:30:38.843Z,18.53
2018-02-12T01:33:06.361Z,18.97
2018-02-12T01:35:33.876Z,18.60
2018-02-12T01:38:01.396Z,20.43
2018-02-12T01:40:28.913Z,18.50
2018-02-12T01:42:56.420Z,19.90
2018-02-12T01:45:23.960Z,17.40
2018-02-12T01:47:51.483Z,19.77
2018-02-12T01:50:19.776Z,20.03
2018-02-12T01:52:47.290Z,17.97
2018-02-12T01:55:14.804Z,18.37
2018-02-12T01:57:42.325Z,16.93
2018-02-12T02:00:09.844Z,20.53
2018-02-12T02:02:37.362Z,27.37
2018-02-12T02:05:04.868Z,20.57
2018-02-12T02:07:32.395Z,20.23
2018-02-12T02:09:59.916Z,20.43
2018-02-12T02:12:27.427Z,17.57
2018-02-12T02:14:54.951Z,20.10
2018-02-12T02:17:22.477Z,19.97
2018-02-12T02:19:49.986Z,19.13
2018-02-12T02:22:17.497Z,22.13
2018-02-12T02:24:45.005Z,21.00
2018-02-12T02:27:12.527Z,20.87
2018-02-12T02:29:40.041Z,17.37
2018-02-12T02:32:07.563Z,19.27
2018-02-12T02:34:35.077Z,18.33
2018-02-12T02:37:02.603Z,21.70
2018-02-12T02:39:30.125Z,20.17
2018-02-12T02:41:57.650Z,18.97
2018-02-12T02:44:25.190Z,19.80
2018-02-12T02:46:52.705Z,17.17
2018-02-12T02:49:20.224Z,21.23
2018-02-12T02:51:47.756Z,21.30
2018-02-12T02:54:15.382Z,18.73
2018-02-12T02:56:42.904Z,19.30
2018-02-12T02:59:10.443Z,20.73
2018-02-12T03:01:37.959Z,16.07
2018-02-12T03:04:05.483Z,17.90
2018-02-12T03:06:33.008Z,22.77
2018-02-12T03:09:00.536Z,18.70
2018-02-12T03:11:28.067Z,20.33
2018-02-12T03:13:55.588Z,19.47
2018-02-12T03:16:23.103Z,19.53
2018-02-12T03:18:50.623Z,21.87
2018-02-12T03:21:18.191Z,19.30
2018-02-12T03:23:45.704Z,19.73
2018-02-12T03:26:13.223Z,17.77
2018-02-12T03:28:40.736Z,21.60
2018-02-12T03:31:08.253Z,18.53
2018-02-12T03:33:35.763Z,19.60
2018-02-12T03:36:03.283Z,23.73
2018-02-12T03:38:30.804Z,20.80
2018-02-12T03:40:58.328Z,21.50
2018-02-12T03:43:25.841Z,18.90
2018-02-12T03:45:56.880Z,19.33
2018-02-12T03:48:24.400Z,23.20
2018-02-12T03:50:51.919Z,18.83
2018-02-12T03:53:19.447Z,17.50
2018-02-12T03:55:46.963Z,20.03
2018-02-12T03:58:14.472Z,19.70
2018-02-12T04:00:42.300Z,19.13
2018-02-12T04:03:09.838Z,18.47
2018-02-12T04:05:37.356Z,20.17
2018-02-12T04:08:04.877Z,19.70
2018-02-12T04:10:32.406Z,20.37
2018-02-12T04:12:59.936Z,18.43
2018-02-12T04:15:27.447Z,19.07
2018-02-12T04:17:54.958Z,18.43
2018-02-12T04:20:22.472Z,20.47
2018-02-12T04:22:49.989Z,16.87
2018-02-12T04:25:17.507Z,19.43
2018-02-12T04:27:45.025Z,22.60
2018-02-12T04:30:12.536Z,20.60
2018-02-12T04:32:40.064Z,17.87
2018-02-12T04:35:07.597Z,19.40
2018-02-12T04:37:35.113Z,20.60
2018-02-12T04:40:02.628Z,17.13
2018-02-12T04:42:30.140Z,18.37
2018-02-12T04:44:57.661Z,17.70
2018-02-12T04:47:25.179Z,19.67
2018-02-12T04:49:52.679Z,16.83
2018-02-12T04:52:20.205Z,19.63
2018-02-12T04:54:47.720Z,19.00
2018-02-12T04:57:15.240Z,18.57
2018-02-12T04:59:42.751Z,18.67
2018-02-12T05:02:10.260Z,15.37
2018-02-12T05:04:37.767Z,17.77
2018-02-12T05:07:05.285Z,17.43
2018-02-12T05:09:32.793Z,16.83
2018-02-12T05:12:00.313Z,16.93
2018-02-12T05:14:27.838Z,17.87
2018-02-12T05:16:55.397Z,17.07
2018-02-12T05:19:22.926Z,20.33
2018-02-12T05:21:50.446Z,18.37
2018-02-12T05:24:17.981Z,20.57
2018-02-12T05:26:45.507Z,18.80
2018-02-12T05:29:13.016Z,17.97
2018-02-12T05:31:40.528Z,18.03
2018-02-12T05:34:08.049Z,18.90
2018-02-12T05:36:35.572Z,20.23
2018-02-12T05:39:03.084Z,20.13
2018-02-12T05:41:30.607Z,22.83
2018-02-12T05:43:58.117Z,19.87
2018-02-12T05:46:25.632Z,19.17
2018-02-12T05:48:53.158Z,16.47
2018-02-12T05:51:20.684Z,17.90
2018-02-12T05:53:48.311Z,15.90
2018-02-12T05:56:15.837Z,21.07
2018-02-12T05:58:43.362Z,16.40
2018-02-12T06:01:10.885Z,19.90
2018-02-12T06:03:38.402Z,16.87
2018-02-12T06:06:05.922Z,18.10
2018-02-12T06:08:33.435Z,17.63
2018-02-12T06:11:00.968Z,17.27
2018-02-12T06:13:28.529Z,17.13
2018-02-12T06:15:56.040Z,18.30
2018-02-12T06:18:23.551Z,19.93
2018-02-12T06:20:51.069Z,16.03
2018-02-12T06:23:18.576Z,16.27
2018-02-12T06:25:46.089Z,18.37
2018-02-12T06:28:13.605Z,15.47
2018-02-12T06:30:41.117Z,15.97
2018-02-12T06:33:08.648Z,20.33
2018-02-12T06:35:36.166Z,17.77
2018-02-12T06:38:03.679Z,18.40
2018-02-12T06:40:31.184Z,16.30
2018-02-12T06:42:58.709Z,16.77
2018-02-12T06:45:26.242Z,22.13
2018-02-12T06:47:53.760Z,19.37
2018-02-12T06:50:21.284Z,17.67
2018-02-12T06:52:48.809Z,18.63
2018-02-12T06:55:16.320Z,18.57
2018-02-12T06:57:43.835Z,22.53
2018-02-12T07:00:11.366Z,18.97
2018-02-12T07:02:38.881Z,18.83
2018-02-12T07:05:06.413Z,18.57
2018-02-12T07:07:33.942Z,17.83
2018-02-12T07:10:01.460Z,18.70
2018-02-12T07:12:28.992Z,19.83
2018-02-12T07:14:56.500Z,16.30
2018-02-12T07:17:24.024Z,22.33
2018-02-12T07:19:51.528Z,18.17
2018-02-12T07:22:19.039Z,18.17
2018-02-12T07:24:46.586Z,16.63
2018-02-12T07:27:14.106Z,19.17
2018-02-12T07:29:41.623Z,20.80
2018-02-12T07:32:09.162Z,16.67
2018-02-12T07:34:36.692Z,16.27
2018-02-12T07:37:04.283Z,16.07
2018-02-12T07:39:31.816Z,16.70
2018-02-12T07:41:59.325Z,24.97
2018-02-12T07:44:26.854Z,16.83
2018-02-12T07:46:54.391Z,18.93
2018-02-12T07:49:21.909Z,17.97
2018-02-12T07:51:49.438Z,18.73
2018-02-12T07:54:16.961Z,15.43
2018-02-12T07:56:44.482Z,17.93
2018-02-12T07:59:12.035Z,16.07
2018-02-12T08:01:39.573Z,15.80
2018-02-12T08:04:07.092Z,15.57
2018-02-12T08:06:34.620Z,17.30
2018-02-12T08:09:02.150Z,19.20
2018-02-12T08:11:29.665Z,16.50
2018-02-12T08:13:57.183Z,23.23
2018-02-12T08:16:24.694Z,19.10
2018-02-12T08:18:52.211Z,16.97
2018-02-12T08:21:19.745Z,15.77
2018-02-12T08:23:47.306Z,14.83
2018-02-12T08:26:14.837Z,17.50
2018-02-12T08:28:42.352Z,18.60
2018-02-12T08:31:09.868Z,16.47
2018-02-12T08:33:37.376Z,16.90
2018-02-12T08:36:04.898Z,18.20
2018-02-12T08:38:32.417Z,16.53
2018-02-12T08:40:59.957Z,15.33
2018-02-12T08:43:27.485Z,16.50
2018-02-12T08:45:55.002Z,14.93
2018-02-12T08:48:22.524Z,15.73
2018-02-12T08:50:50.053Z,15.27
2018-02-12T08:53:17.582Z,17.47
2018-02-12T08:55:45.109Z,16.03
2018-02-12T08:58:12.713Z,16.33
2018-02-12T09:00:40.230Z,17.10
2018-02-12T09:03:07.743Z,16.10
2018-02-12T09:05:35.262Z,15.50
2018-02-12T09:08:02.788Z,14.53
2018-02-12T09:10:30.295Z,15.90
2018-02-12T09:12:57.824Z,13.20
2018-02-12T09:15:25.342Z,13.43
2018-02-12T09:17:52.856Z,16.03
2018-02-12T09:20:20.391Z,15.27
2018-02-12T09:22:48.001Z,17.47
2018-02-12T09:25:15.554Z,15.50
2018-02-12T09:27:43.075Z,14.33
2018-02-12T09:30:10.601Z,15.77
2018-02-12T09:32:38.126Z,16.90
2018-02-12T09:35:05.685Z,16.43
2018-02-12T09:37:33.214Z,15.70
2018-02-12T09:40:00.743Z,16.83
2018-02-12T09:42:28.921Z,16.30
2018-02-12T09:44:56.441Z,15.67
2018-02-12T09:47:23.964Z,15.97
2018-02-12T09:49:51.481Z,19.30
2018-02-12T09:52:18.995Z,19.80
2018-02-12T09:54:46.511Z,19.40
2018-02-12T09:57:14.031Z,21.37
2018-02-12T09:59:41.637Z,16.73
2018-02-12T10:02:09.148Z,16.77
2018-02-12T10:04:36.668Z,16.40
2018-02-12T10:07:04.210Z,13.60
2018-02-12T10:09:31.744Z,14.77
2018-02-12T10:11:59.259Z,17.57
2018-02-12T10:14:26.774Z,13.13
2018-02-12T10:16:54.349Z,16.17
2018-02-12T10:19:21.864Z,12.53
2018-02-12T10:21:49.395Z,18.00
2018-02-12T10:24:17.012Z,14.93
2018-02-12T10:26:44.531Z,16.27
2018-02-12T10:29:12.059Z,14.93
2018-02-12T10:31:39.591Z,13.60
2018-02-12T10:34:07.106Z,14.77
2018-02-12T10:36:34.622Z,18.27
2018-02-12T10:39:02.177Z,18.27
2018-02-12T10:41:29.697Z,13.67
2018-02-12T10:43:57.228Z,15.90
2018-02-12T10:46:24.763Z,13.67
2018-02-12T10:48:52.306Z,15.07
2018-02-12T10:51:20.684Z,16.37
2018-02-12T10:53:48.215Z,18.47
2018-02-12T10:56:15.821Z,16.23
2018-02-12T10:58:43.331Z,15.30
2018-02-12T11:01:10.853Z,16.17
2018-02-12T11:03:38.384Z,16.20
2018-02-12T11:06:05.892Z,17.53
2018-02-12T11:08:33.415Z,13.73
2018-02-12T11:11:00.931Z,14.73
2018-02-12T11:13:28.452Z,14.10
2018-02-12T11:15:56.095Z,14.80
2018-02-12T11:18:23.608Z,12.60
2018-02-12T11:20:51.125Z,15.73
2018-02-12T11:23:18.647Z,15.90
2018-02-12T11:25:46.182Z,15.33
2018-02-12T11:28:13.719Z,16.63
2018-02-12T11:30:41.247Z,12.53
2018-02-12T11:33:08.757Z,14.53
2018-02-12T11:35:36.326Z,15.30
2018-02-12T11:38:03.848Z,13.47
2018-02-12T11:40:31.363Z,13.80
2018-02-12T11:42:58.894Z,14.50
2018-02-12T11:45:26.941Z,13.60
2018-02-12T11:47:54.449Z,13.67
2018-02-12T11:50:21.968Z,13.33
2018-02-12T11:52:49.491Z,11.17
2018-02-12T11:55:17.028Z,14.70
2018-02-12T11:57:44.551Z,13.20
2018-02-12T12:00:12.069Z,12.30
2018-02-12T12:02:39.586Z,14.70
2018-02-12T12:05:07.122Z,12.43
2018-02-12T12:07:34.652Z,12.03
2018-02-12T12:10:02.165Z,11.73
2018-02-12T12:12:29.671Z,12.70
2018-02-12T12:14:57.200Z,11.07
2018-02-12T12:17:24.734Z,10.63
2018-02-12T12:19:52.250Z,14.97
2018-02-12T12:22:19.765Z,17.13
2018-02-12T12:24:47.280Z,12.63
2018-02-12T12:27:14.793Z,12.80
2018-02-12T12:29:42.306Z,12.10
2018-02-12T12:32:09.818Z,13.90
2018-02-12T12:34:37.328Z,10.77
2018-02-12T12:37:04.844Z,12.07
2018-02-12T12:39:32.362Z,14.23
2018-02-12T12:41:59.888Z,14.93
2018-02-12T12:44:27.409Z,11.30
2018-02-12T12:46:54.916Z,10.43
2018-02-12T12:49:22.438Z,10.90
2018-02-12T12:51:49.952Z,7.73
2018-02-12T12:54:17.577Z,11.13
2018-02-12T12:56:45.101Z,8.27
2018-02-12T12:59:12.612Z,10.70
2018-02-12T13:01:40.116Z,11.63
2018-02-12T13:04:07.631Z,10.37
2018-02-12T13:06:35.135Z,10.57
2018-02-12T13:09:02.636Z,8.33
2018-02-12T13:11:30.153Z,9.03
2018-02-12T13:13:57.655Z,9.47
2018-02-12T13:16:25.168Z,10.50
2018-02-12T13:18:52.720Z,10.50
2018-02-12T13:21:20.223Z,8.83
2018-02-12T13:23:47.728Z,8.30
2018-02-12T13:26:15.237Z,6.87
2018-02-12T13:28:42.761Z,9.97
2018-02-12T13:31:10.265Z,12.57
2018-02-12T13:33:37.778Z,9.60
2018-02-12T13:36:05.340Z,9.13
2018-02-12T13:38:32.841Z,10.07
2018-02-12T13:41:00.354Z,9.97
2018-02-12T13:43:27.873Z,11.57
2018-02-12T13:45:55.388Z,12.33
2018-02-12T13:48:22.907Z,10.13
2018-02-12T13:50:50.415Z,15.40
2018-02-12T13:53:17.925Z,10.50
2018-02-12T13:55:45.443Z,12.93
2018-02-12T13:58:12.956Z,8.50
2018-02-12T14:00:40.539Z,14.60
2018-02-12T14:03:08.062Z,10.83
2018-02-12T14:05:35.577Z,10.07
2018-02-12T14:08:03.105Z,10.00
2018-02-12T14:10:30.639Z,12.03
2018-02-12T14:12:58.189Z,10.27
2018-02-12T14:15:25.705Z,12.33
2018-02-12T14:17:53.217Z,9.93
2018-02-12T14:20:20.784Z,11.83
2018-02-12T14:22:48.279Z,11.07
2018-02-12T14:25:15.780Z,10.47
2018-02-12T14:27:43.299Z,18.00
2018-02-12T14:30:10.808Z,12.80
2018-02-12T14:32:38.322Z,13.60
2018-02-12T14:35:05.848Z,11.57
2018-02-12T14:37:33.376Z,10.37
2018-02-12T14:40:00.898Z,10.80
2018-02-12T14:42:28.401Z,7.90
2018-02-12T14:44:55.944Z,9.23
2018-02-12T14:47:23.456Z,12.23
2018-02-12T14:49:51.604Z,11.37
2018-02-12T14:52:19.114Z,11.30
2018-02-12T14:54:46.623Z,13.30
2018-02-12T14:57:14.171Z,10.23
2018-02-12T14:59:41.685Z,13.20
2018-02-12T15:02:09.217Z,14.30
2018-02-12T15:04:36.808Z,13.37
2018-02-12T15:07:05.538Z,13.10
2018-02-12T15:09:33.052Z,10.13
2018-02-12T15:12:00.572Z,10.23
2018-02-12T15:14:28.113Z,11.53
2018-02-12T15:16:55.622Z,10.97
2018-02-12T15:19:23.145Z,10.90
2018-02-12T15:21:50.647Z,5.90
2018-02-12T15:24:18.437Z,11.73
2018-02-12T15:26:45.968Z,10.37
2018-02-12T15:29:13.518Z,10.13
2018-02-12T15:31:41.030Z,7.23
2018-02-12T15:34:08.543Z,11.83
2018-02-12T15:36:36.073Z,15.93
2018-02-12T15:39:03.584Z,9.77
2018-02-12T15:41:31.106Z,21.13
2018-02-12T15:43:58.629Z,11.03
2018-02-12T15:46:26.144Z,13.37
2018-02-12T15:48:53.666Z,9.53
2018-02-12T15:51:21.202Z,9.53
2018-02-12T15:53:48.806Z,14.10
2018-02-12T15:56:16.321Z,13.30
2018-02-12T15:58:43.839Z,11.53
2018-02-12T16:01:11.360Z,12.53
2018-02-12T16:03:38.882Z,10.60
2018-02-12T16:06:06.407Z,13.67
2018-02-12T16:08:33.907Z,12.73
2018-02-12T16:11:01.422Z,9.73
2018-02-12T16:13:28.942Z,8.73
2018-02-12T16:15:56.457Z,7.23
2018-02-12T16:18:23.973Z,8.43
2018-02-12T16:20:51.519Z,8.17
2018-02-12T16:23:19.046Z,10.93
2018-02-12T16:25:46.577Z,11.53
2018-02-12T16:28:14.085Z,12.47
2018-02-12T16:30:41.592Z,9.53
2018-02-12T16:33:09.103Z,11.00
2018-02-12T16:35:36.612Z,9.47
2018-02-12T16:38:04.146Z,10.13
2018-02-12T16:40:31.653Z,10.87
2018-02-12T16:42:59.171Z,14.90
2018-02-12T16:45:26.682Z,10.43
2018-02-12T16:47:54.189Z,11.97
2018-02-12T16:50:21.714Z,10.77
2018-02-12T16:52:49.217Z,12.30
2018-02-12T16:55:16.742Z,10.63
2018-02-12T16:57:44.250Z,13.80
2018-02-12T17:00:11.770Z,9.17
2018-02-12T17:02:39.301Z,12.20
2018-02-12T17:05:06.820Z,15.47
2018-02-12T17:07:34.327Z,8.47
2018-02-12T17:10:01.842Z,10.27
2018-02-12T17:12:29.364Z,13.67
2018-02-12T17:14:56.892Z,13.97
2018-02-12T17:17:24.404Z,14.77
2018-02-12T17:19:51.940Z,11.57
2018-02-12T17:22:19.448Z,12.33
2018-02-12T17:24:46.967Z,18.20
2018-02-12T17:27:14.480Z,15.43
2018-02-12T17:29:41.979Z,8.93
2018-02-12T17:32:09.489Z,10.57
2018-02-12T17:34:37.012Z,11.47
2018-02-12T17:37:04.532Z,15.53
2018-02-12T17:39:32.045Z,10.03
2018-02-12T17:41:59.569Z,10.23
2018-02-12T17:44:27.085Z,16.77
2018-02-12T17:46:54.611Z,13.30
2018-02-12T17:49:22.148Z,9.50
2018-02-12T17:51:49.682Z,16.27
2018-02-12T17:54:17.201Z,10.57
2018-02-12T17:56:44.779Z,11.87
2018-02-12T17:59:12.304Z,9.33
2018-02-12T18:01:39.819Z,14.90
2018-02-12T18:04:07.335Z,12.57
2018-02-12T18:06:34.859Z,8.70
2018-02-12T18:09:02.364Z,10.03
2018-02-12T18:11:29.878Z,11.23
2018-02-12T18:13:57.393Z,12.13
2018-02-12T18:16:24.908Z,9.10
2018-02-12T18:18:52.453Z,11.50
2018-02-12T18:21:19.970Z,10.10
2018-02-12T18:23:47.486Z,8.50
2018-02-12T18:26:15.008Z,10.93
2018-02-12T18:28:42.538Z,12.13
2018-02-12T18:31:10.622Z,9.57
2018-02-12T18:33:38.125Z,8.83
2018-02-12T18:36:05.636Z,14.33
2018-02-12T18:38:33.153Z,12.20
2018-02-12T18:41:00.674Z,10.47
2018-02-12T18:43:28.208Z,15.07
2018-02-12T18:45:55.730Z,17.17
2018-02-12T18:48:23.254Z,13.23
2018-02-12T18:50:50.771Z,12.67
2018-02-12T18:53:18.290Z,15.23
2018-02-12T18:55:45.808Z,14.67
2018-02-12T18:58:13.328Z,10.83
2018-02-12T19:00:40.846Z,12.07
2018-02-12T19:03:08.360Z,12.00
2018-02-12T19:05:35.877Z,12.87
2018-02-12T19:08:03.403Z,12.07
2018-02-12T19:10:30.916Z,12.63
2018-02-12T19:12:58.436Z,9.77
2018-02-12T19:15:25.971Z,16.77
2018-02-12T19:17:53.481Z,15.80
2018-02-12T19:20:20.990Z,14.57
2018-02-12T19:22:48.560Z,15.40
2018-02-12T19:25:16.067Z,14.60
2018-02-12T19:27:43.583Z,12.47
2018-02-12T19:30:11.094Z,13.63
2018-02-12T19:32:38.611Z,15.10
2018-02-12T19:35:06.122Z,12.43
2018-02-12T19:37:33.647Z,14.53
2018-02-12T19:40:01.160Z,15.63
2018-02-12T19:42:28.755Z,12.33
2018-02-12T19:44:56.277Z,13.93
2018-02-12T19:47:23.788Z,11.40
2018-02-12T19:49:51.313Z,12.70
2018-02-12T19:52:18.825Z,14.77
2018-02-12T19:54:46.332Z,12.73
2018-02-12T19:57:13.843Z,15.90
2018-02-12T19:59:41.366Z,18.17
2018-02-12T20:02:08.893Z,14.90
2018-02-12T20:04:36.436Z,14.03
2018-02-12T20:07:03.957Z,13.10
2018-02-12T20:09:31.501Z,14.20
2018-02-12T20:11:59.011Z,15.27
2018-02-12T20:14:26.531Z,15.53
2018-02-12T20:16:54.038Z,13.03
2018-02-12T20:19:21.565Z,13.50
2018-02-12T20:21:49.093Z,12.60
2018-02-12T20:24:16.644Z,13.77
2018-02-12T20:26:44.166Z,13.73
2018-02-12T20:29:11.685Z,13.70
2018-02-12T20:31:39.202Z,17.20
2018-02-12T20:34:06.743Z,10.83
2018-02-12T20:36:34.270Z,13.00
2018-02-12T20:39:01.782Z,15.97
2018-02-12T20:41:29.311Z,17.47
2018-02-12T20:43:56.838Z,14.60
2018-02-12T20:46:24.358Z,13.30
2018-02-12T20:48:51.877Z,21.10
2018-02-12T20:51:19.398Z,19.90
2018-02-12T20:53:46.909Z,15.00
2018-02-12T20:56:14.432Z,12.60
2018-02-12T20:58:41.956Z,17.93
2018-02-12T21:01:09.481Z,18.23
2018-02-12T21:03:36.989Z,17.50
2018-02-12T21:06:04.500Z,21.57
2018-02-12T21:08:32.040Z,16.17
2018-02-12T21:10:59.567Z,13.10
2018-02-12T21:13:27.100Z,22.83
2018-02-12T21:15:54.639Z,21.37
2018-02-12T21:18:22.178Z,17.53
2018-02-12T21:20:49.696Z,14.10
2018-02-12T21:23:17.953Z,15.87
2018-02-12T21:25:45.463Z,16.77
2018-02-12T21:28:12.964Z,24.20
2018-02-12T21:30:40.495Z,15.23
2018-02-12T21:33:08.014Z,17.40
2018-02-12T21:35:35.540Z,18.67
2018-02-12T21:38:03.060Z,16.10
2018-02-12T21:40:30.577Z,18.40
2018-02-12T21:42:58.105Z,18.37
2018-02-12T21:45:25.611Z,21.00
2018-02-12T21:47:53.123Z,16.60
2018-02-12T21:50:20.644Z,15.83
2018-02-12T21:52:48.156Z,18.57
2018-02-12T21:55:15.694Z,20.70
2018-02-12T21:57:43.261Z,17.17
2018-02-12T22:00:10.782Z,19.93
2018-02-12T22:02:38.320Z,18.73
2018-02-12T22:05:05.854Z,19.80
2018-02-12T22:07:33.400Z,16.03
2018-02-12T22:10:01.008Z,15.40
2018-02-12T22:12:31.225Z,18.60
2018-02-12T22:15:08.033Z,14.70
2018-02-12T22:17:37.156Z,16.20
2018-02-12T22:20:04.707Z,21.30
2018-02-12T22:22:32.232Z,24.57
2018-02-12T22:24:59.746Z,20.87
2018-02-12T22:27:27.276Z,18.00
2018-02-12T22:29:54.815Z,21.53
2018-02-12T22:32:22.350Z,16.33
2018-02-12T22:34:49.873Z,19.97
2018-02-12T22:37:17.394Z,20.07
2018-02-12T22:39:44.948Z,17.73
2018-02-12T22:42:13.233Z,17.30
2018-02-12T22:44:40.764Z,24.43
2018-02-12T22:47:08.272Z,17.50
2018-02-12T22:49:35.802Z,21.02
2018-02-12T22:52:03.316Z,16.80
2018-02-12T22:54:30.841Z,19.57
2018-02-12T22:56:58.385Z,19.87
2018-02-12T22:59:25.908Z,19.13
2018-02-12T23:01:53.425Z,17.33
2018-02-12T23:04:20.958Z,20.03
2018-02-12T23:06:48.471Z,15.97
2018-02-12T23:09:16.002Z,16.63
2018-02-12T23:11:43.615Z,18.40
2018-02-12T23:14:11.200Z,21.33
2018-02-12T23:16:38.814Z,20.13
2018-02-12T23:19:06.414Z,20.53
2018-02-12T23:21:33.959Z,16.63
2018-02-12T23:24:01.477Z,18.57
2018-02-12T23:26:29.015Z,18.57
2018-02-12T23:28:56.667Z,15.97
2018-02-12T23:31:24.223Z,19.43
2018-02-12T23:33:51.740Z,17.93
2018-02-12T23:36:19.272Z,16.30
2018-02-12T23:38:46.834Z,17.90
2018-02-12T23:41:14.363Z,15.80
2018-02-12T23:43:41.879Z,16.03
2018-02-12T23:46:10.065Z,17.37
2018-02-12T23:48:37.579Z,15.50
2018-02-12T23:51:05.100Z,17.37
2018-02-12T23:53:32.658Z,15.87
2018-02-12T23:56:00.192Z,17.43
2018-02-12T23:58:27.705Z,18.17
